z

Olsztyn

Wyniki

Bieg 4

16.01.2016 Dystans: 5 km Rodzaj: Bieg główny
Pobierz wyniki:
Miejsce Nr Nazwisko Imię Miasto Klub Rocznik Kategoria Czas netto Czas brutto
1 11 JACKIEWICZ MONIKA Szczecin CITY TRAIL TEAM 1992 K20 00:19:47 00:19:47
2 12 BARCEWICZ MARTA Olsztyn 12TRI.PL DRUŻYNA WILKA 1986 K20 00:20:48 00:20:50
3 460 TRZECIAK MAGDALENA Olsztyn AZS UWM OLSZTYN/GRUPA DBK 1995 K20 00:20:56 00:20:57
4 648 WIŚNIEWSKA MARTYNA Warszawa CITY TRAIL TEAM 1988 K20 00:21:35 00:21:39
5 493 GAWROŃSKA BEATA Olsztyn AKM OLIMP OLSZTYN/SKLEPBIEGOWY.COM 1973 K40 00:23:16 00:23:21
6 395 HANOWSKA WERONIKA Olsztyn AZS UWM OLSZTYN 1998 K16 00:23:17 00:23:19
7 365 ANDRUSZKIEWICZ-ĆWIK NATALIA Olsztyn 12TRI.PL DRUŻYNA WILKA 1985 K30 00:23:26 00:23:30
8 82 PIECZULIS KRYSTYNA Olsztyn AZS UWM OLSZTYN/AKM OLIMP/SKLEP BIEGOWY 1962 K50 00:23:47 00:23:49
9 98 ZIELIŃSKA MAGDALENA olsztyn TEAM KOPEĆ 1982 K30 00:23:48 00:23:52
10 195 JANOWSKA ANNA Olsztyn 12TRI.PL DRUŻYNA WILKA 1981 K30 00:23:53 00:24:00
11 226 KOSACKA EMILIA Skajboty 1982 K30 00:23:54 00:23:58
12 314 GODLEWSKA IWONA Olsztyn GASSS ŁOMEN 1974 K40 00:24:08 00:24:21
13 464 BOGUSZ JUSTYNA Mrągwo 12TRI.PL DRUŻYNA WILKA 1994 K20 00:24:18 00:24:27
14 113 LIPNICKA KATARZYNA Ostróda MTZ RENAULT ALCAR TEAM KOPEĆ 1982 K30 00:24:20 00:24:24
15 377 BRONAKOWSKA DOROTA Olsztyn 1982 K30 00:24:36 00:24:47
16 119 WASIAK MIŁOSŁAWA Działdowo PSZCZÓŁKOWSKI TEAM 1991 K20 00:24:42 00:24:49
17 579 POPŁAWSKA SELENA Olsztyn TEAM KOPEĆ 1982 K30 00:24:50 00:25:03
18 231 DĄBKOWSKA-WILCZEK MARTA Olsztyn 12TRI.PL DRUŻYNA WILKA 1983 K30 00:24:52 00:25:09
19 44 BURANDT MAGDALENA Olszty 12TRI.PL DRUŻYNA WILKA 1980 K30 00:24:52 00:25:02
20 143 OLEJNIK BARBARA olsztyn 1980 K30 00:25:28 00:25:37
21 59 SZYMAŃSKA EDYTA Olsztyn 12TRI.PL DRUŻYNA WILKA 1987 K20 00:26:05 00:26:14
22 445 MILCZAREK DANUTA OLSZTYN KOCHAM SWOJEGO MĘŻA 1973 K40 00:26:18 00:26:30
23 475 KAWAŁKO PATRYCJA Nidzica TEAM KOPEĆ 1974 K40 00:26:30 00:26:36
24 56 KULESZA MAŁGORZATA Olsztyn 4FUNEVENTS.PL 1965 K50 00:26:40 00:26:45
25 350 GAJEWSKA MARCELINA Olsztyn GAJÓWKA 1999 K16 00:26:52 00:27:03
26 357 ROPIAK WIOLETTA olsztyn NUTRIPOL 1975 K40 00:27:00 00:27:09
27 120 NICEWICZ MARTA Olsztyn 12TRI.PL DRUŻYNA WILKA 1985 K30 00:27:16 00:27:32
28 250 CZYŻEWSKA MARIOLA olsztyn 12TRI.PL DRUŻYNA WILKA 1986 K20 00:27:54 00:28:02
29 149 WÓJCIK MONIKA Olsztyn TEAM KOPEĆ 1981 K30 00:28:10 00:28:23
30 629 SENDERSKA-PŁONOWSKA MAGDALENA Wrocław 1992 K20 00:28:11 00:28:30
31 389 PODLEWSKA ANNA OLSZTYN FITNESS CLUB SYLWETKA 1980 K30 00:28:16 00:28:30
32 482 KUCZYŃSKA KINGA Mrągowo 1985 K30 00:28:23 00:28:34
33 73 KUNDA EDYTA Gietrzwałd TEAM BEZ NAZWY/KW OLSZTYN 1980 K30 00:28:26 00:28:46
34 131 ODOLIŃSKA AGNIESZKA Ostróda BRZOZOWSKI TEAM 1972 K40 00:28:30 00:28:49
35 225 MOROZ KATARZYNA Olsztyn 1978 K30 00:28:38 00:29:03
36 237 GRABIEC JOANNA Miłomłyn BRZOZOWSKI TEAM 1996 K16 00:28:38 00:29:00
37 616 WORONIEC ALICJA Lidzbark Warmiński TEAM KOPEĆ 1981 K30 00:28:40 00:28:49
38 262 KIEZIK ANNA Olsztyn 1982 K30 00:28:40 00:29:04
39 179 SŁOWIKOWSKA MAGDALENA Olsztyn SĄD OKRĘGOWY W OLSZTYNIE 1975 K40 00:28:43 00:28:57
40 322 ANDRUSZKIEWICZ ANNA Olsztyn BBLOLSZTYN 1957 K50 00:28:47 00:29:03
41 575 KAROLEWSKA ANNA Olsztyn 1985 K30 00:28:48 00:29:05
42 106 ŻUCHNIEWICZ WIKTORIA Olsztyn LEŚNI BIEGACZE 1998 K16 00:28:49 00:29:02
43 127 KRAUSHAR MONIKA Giedajty DOMON 1974 K40 00:28:56 00:29:12
44 70 WILCZEWSKA MONIKA Olsztyn MONIKA 1984 K30 00:29:00 00:29:16
45 641 SKZRYŃSKA EWA Olsztyn BYLE DOBIEC 1968 K40 00:29:08 00:29:36
46 508 SZYNDRALEWICZ GABRIELA OLSZTYN GRUPA DBK OLSZTYN 1969 K40 00:29:18 00:29:36
47 562 BOCHNIAK KATARZYNA Olsztyn 1986 K20 00:29:19 00:29:37
48 76 SZWAJOREK EWELINA Olsztyn PSZCZÓŁKOWSKI TEAM 1987 K20 00:29:19 00:29:37
49 178 PAŃKOWSKA MARTYNA Olsztyn SĄD OKRĘGOWY W OLSZTYNIE 1987 K20 00:29:23 00:29:39
50 32 POLAK MICHALINA Opole 1995 K20 00:29:23 00:29:44
51 581 OPRZYŃSKA AGNIESZKA Olsztyn 1981 K30 00:29:26 00:29:48
52 431 BARNECKA PAULINA Olsztyn 1992 K20 00:29:26 00:29:41
53 462 WALKIEWICZ JOANNA olsztyn SQUAD OLSZTYN 1978 K30 00:29:37 00:29:51
54 571 JANKOWSKA PAULINA Olsztyn TEAM BEZ NAZWY/KW OLSZTYN 1985 K30 00:29:40 00:30:02
55 541 FOKS MAŁGORZATA Jonkowo 1987 K20 00:29:43 00:30:07
56 229 PĘDZIWIATR JOANNA Olsztyn ZI SQUAD / PSZCZÓŁKOWSKI TEAM 1985 K30 00:29:48 00:30:11
57 114 KOSAKOWSKA-SZUTKOWSKA BARBARA Olsztyn AKM OLIMP OLSZTYN/SKLEPBIEGOWY.COM 1955 K60 00:29:57 00:30:16
58 135 ROGOZIŃSKA MONIKA Olsztyn GRUPA DBK 1986 K20 00:29:59 00:30:19
59 313 FOTSCHKI JOLANTA Olsztyn 1963 K50 00:30:06 00:30:25
60 558 KUREK MARIOLA Jonkowo PORBADY 1978 K30 00:30:11 00:30:38
61 307 BOSKY EWA Olsztyn 12TRII DRUŻYNA WILKA 1967 K40 00:30:12 00:30:28
62 630 BOŃKOWSKA-CIESZYŃSKA EWELINA Olsztyn 1987 K20 00:30:13 00:30:35
63 330 ZIELIŃSKA KASIA Olsztyn 1988 K20 00:30:16 00:30:44
64 645 BIALIK MAGDALENA Olsztyn BIEG NA SZEŚĆ ŁAP 1994 K20 00:30:19 00:30:50
65 68 DADASIEWICZ MARZENA Olsztyn 1979 K30 00:30:24 00:30:49
66 128 POTOCKA MAŁGORZATA Olsztyn AKM OLIMP OLSZTYN/ SKLEPBIEGOWY.COM 1974 K40 00:30:25 00:30:40
67 448 BOLDA PATRYCJA Olsztyn FIZJOTERAPIA MATEUSZ DERLECKI 1993 K20 00:30:28 00:30:53
68 333 TURALSKA MAŁGORZATA Olsztyn NUTRIPOL 1965 K50 00:30:28 00:30:48
69 265 GĄSIOREK JOANNA Jonkowo 1989 K20 00:30:29 00:30:50
70 624 FOTSCHKI JOANNA Olsztyn 1988 K20 00:30:35 00:30:54
71 522 LACHOWICZ EMILIA Olsztyn VEGE RUNNERS 1982 K30 00:30:36 00:30:54
72 94 PANKOWSKA KATARZYNA Iława ORKAMASTERS IŁAWA 1983 K30 00:30:41 00:31:01
73 625 CHOMICKA MARIA Olsztyn 1987 K20 00:30:55 00:31:19
74 481 DOMAŃSKA EWA Olsztyn 1984 K30 00:30:56 00:31:20
75 292 NADZIAK WIOLETTA Morąg INKSPOT 1974 K40 00:30:58 00:31:24
76 527 MAŃKOWSKA-SALIK IZABELA Olsztyn 1978 K30 00:31:00 00:31:23
77 511 DZIDO EDYTA Nidzica NIDZICA BIEGA 1971 K40 00:31:01 00:31:16
78 244 BRZÓSKA KATARZYNA Olsztyn LEŚNI BIEGACZE 1970 K40 00:31:04 00:31:33
79 466 STRĄCZEK DOMINIKA Olsztyn 1986 K20 00:31:04 00:31:31
80 302 GAJEWSKA BARBARA Olsztyn GAJÓWKA 1964 K50 00:31:07 00:31:28
81 443 GRĄDZKA IZABELA Barczewo BARCZEWO BIEGA 1981 K30 00:31:26 00:31:41
82 594 DEMBIŃSKA ANNA Marki 1991 K20 00:31:36 00:31:58
83 512 OSTROMECKA ANNA Olsztyn 1987 K20 00:31:37 00:31:55
84 410 BARTNIKOWSKA OLGA Olsztyn KINETIC TEAM 1977 K30 00:31:39 00:32:05
85 41 PIĘDZIA IZABELA Olsztyn LEŚNI BIEGACZE 1974 K40 00:31:47 00:32:01
86 248 KRAWIEC AGNIESZKA Olsztyn SĄD OKRĘGOWY W OLSZTYNIE 1977 K30 00:31:59 00:32:27
87 299 PRANDOTA ALICJA Bartoszyce 1991 K20 00:32:03 00:32:29
88 303 PAZIK PATRYCJA Bartoszyce 1991 K20 00:32:03 00:32:30
89 42 GIERZ-GIERSZEWSKA DOROTA Olsztyn TEAM BEZ NAZWY/KW OLSZTYN 1960 K50 00:32:05 00:32:28
90 212 SIEŃKO MAŁGORZATA Olsztyn TEAM BEZ NAZWY/KW OLSZTYN 1978 K30 00:32:13 00:32:37
91 177 OPAK BEATA Olsztyn SĄD OKRĘGOWY W OLSZTYNIE 1965 K50 00:32:31 00:32:58
92 516 HINZMANN ANNA Stawiguda 1992 K20 00:32:48 00:33:15
93 348 STANKIEWICZ SYLWIA Olsztyn 1980 K30 00:32:56 00:33:09
94 518 GRZEGORZEWSKA KATARZYNA Gietrzwałd 1986 K20 00:33:01 00:33:28
95 467 PETRYKOWSKA MAGDA Miłomłyn BRZOZOWSKI TEAM 1993 K20 00:33:18 00:33:39
96 391 WOŹNIAK MARTYNA Olsztyn FITNESS CLUB SYLWETKA 1983 K30 00:34:14 00:34:38
97 166 BIERNIAK IZABELA Olsztyn SĄD OKRĘGOWY W OLSZTYNIE 1981 K30 00:34:45 00:35:12
98 175 KERBER IZABELA Barczewo SĄD OKRĘGOWY W OLSZTYNIE 1971 K40 00:34:45 00:35:12
99 525 PAWŁOWSKA MALWINA Ożarów Mazowiecki 1982 K30 00:35:14 00:35:42
100 21 DROZDOWSKA EMILIA Olsztyn DROZDY BIEGAJĄ :) 1976 K30 00:35:14 00:35:42
101 51 DIDJURGEIT AGNIESZKA Biskupiec BISKUPIEC BIEGA 1974 K40 00:35:14 00:35:43
102 198 AMBROŻKO WANDA Olsztyn 1948 K60 00:35:53 00:36:23
103 30 RATUSZYŃSKA KASIA Olsztyn 1975 K40 00:36:16 00:36:41
104 115 PANKOWSKA JUSTYNA Olsztyn 1973 K40 00:36:31 00:36:52
105 57 DRABIŃSKA NATALIA Olsztyn 1990 K20 00:36:37 00:37:03
106 644 DĄBROWSKA MONIKA Kwidzyn BIEG NA SZEŚĆ ŁAP 1980 K30 00:37:02 00:37:33
107 104 GOŁAWSKA ALEKSANDRA Olsztyn 1989 K20 00:37:03 00:37:33
108 412 PRZYGODZKA MAŁGORZATA Olsztyn 1986 K20 00:37:30 00:37:56
109 137 BRZÓSKA MAŁGORZATA Jonkowo LEŚNI BIEGACZE 1971 K40 00:38:12 00:38:41
110 194 KOWALCZYK DARIA Olsztyn 1997 K16 00:38:32 00:38:49
111 185 BLOCK BEATA Jonkowo SĄD OKRĘGOWY W OLSZTYNIE 1975 K40 00:38:43 00:39:11

Sponsor tytularny

Partnerzy generalni